Time;durP1;ratioP1;P1;durP2;ratioP2;P2;SDS_P1;SDS_P2;PMS_P1;PMS_P2;Temp;Humidity;BMP_temperature;BMP_pressure;BME280_temperature;BME280_humidity;BME280_pressure;Samples;Min_cycle;Max_cycle;Signal;HPM_P1;HPM_P2
2024/04/17 00:00:36;;;;;;;2.50;1.90;;;;;;;8.49;60.61;94260.66;5448467;26;20014;-49
2024/04/17 00:03:02;;;;;;;2.20;1.88;;;;;;;8.44;60.97;94250.06;5441199;26;20045;-50
2024/04/17 00:05:27;;;;;;;1.77;1.65;;;;;;;8.43;61.00;94251.03;5445862;26;20003;-49
2024/04/17 00:07:52;;;;;;;2.00;1.77;;;;;;;8.55;60.56;94248.75;5448036;26;20039;-49
2024/04/17 00:10:18;;;;;;;1.80;1.60;;;;;;;8.56;60.56;94242.56;5446882;26;20010;-50
2024/04/17 00:12:43;;;;;;;2.40;1.73;;;;;;;8.53;60.68;94240.34;5443090;26;20087;-47
2024/04/17 00:15:08;;;;;;;1.45;1.35;;;;;;;8.45;61.04;94245.66;5445254;26;20006;-48
2024/04/17 00:17:34;;;;;;;2.13;1.80;;;;;;;8.55;60.89;94238.38;5443663;26;19999;-50
2024/04/17 00:19:59;;;;;;;1.60;1.40;;;;;;;8.67;60.01;94236.06;5443703;26;20010;-48
2024/04/17 00:22:24;;;;;;;1.48;1.38;;;;;;;8.65;59.16;94233.66;5448477;26;20009;-48
2024/04/17 00:24:50;;;;;;;1.42;1.05;;;;;;;8.71;58.92;94232.88;5446995;26;20011;-50
2024/04/17 00:27:15;;;;;;;2.17;1.42;;;;;;;8.69;59.33;94237.47;5445500;26;20462;-48
2024/04/17 00:29:40;;;;;;;1.30;1.20;;;;;;;8.61;59.77;94237.63;5440743;26;20003;-47
2024/04/17 00:32:07;;;;;;;2.42;1.20;;;;;;;8.52;60.44;94233.56;5408936;26;19999;-52
2024/04/17 00:34:32;;;;;;;2.20;1.38;;;;;;;8.49;60.32;94237.34;5445073;26;20004;-51
2024/04/17 00:36:58;;;;;;;1.60;1.27;;;;;;;8.59;59.74;94237.00;5448410;26;20018;-50
2024/04/17 00:39:23;;;;;;;1.30;1.17;;;;;;;8.61;60.17;94225.44;5429090;26;20006;-50
2024/04/17 00:41:48;;;;;;;1.35;1.08;;;;;;;8.58;60.06;94223.22;5442368;26;19995;-50
2024/04/17 00:44:14;;;;;;;1.30;1.20;;;;;;;8.61;59.97;94212.50;5448124;26;20006;-49
2024/04/17 00:46:40;;;;;;;2.20;1.30;;;;;;;8.61;59.20;94217.66;5447916;26;19999;-50
2024/04/17 00:49:06;;;;;;;1.20;1.10;;;;;;;8.52;60.32;94218.81;5442746;26;20492;-48
2024/04/17 00:51:33;;;;;;;1.60;1.30;;;;;;;8.63;60.10;94209.72;5447953;26;19995;-48
2024/04/17 00:53:59;;;;;;;1.35;1.20;;;;;;;8.11;61.01;94208.28;5441536;26;20068;-49
2024/04/17 00:56:25;;;;;;;1.85;1.13;;;;;;;8.20;61.25;94204.59;5409956;26;20011;-47
2024/04/17 00:58:51;;;;;;;1.83;1.35;;;;;;;8.15;61.76;94207.75;5440481;26;20045;-47
2024/04/17 01:01:17;;;;;;;1.92;1.40;;;;;;;8.17;61.85;94208.38;5430769;26;20006;-50
2024/04/17 01:03:42;;;;;;;1.63;1.33;;;;;;;7.76;62.54;94201.22;5428757;26;19999;-47
2024/04/17 01:06:08;;;;;;;1.55;1.30;;;;;;;7.76;62.38;94195.25;5430797;26;20003;-50
2024/04/17 01:08:34;;;;;;;1.92;1.20;;;;;;;8.17;60.54;94192.03;5447731;26;20009;-46
2024/04/17 01:11:01;;;;;;;1.42;1.25;;;;;;;8.23;60.75;94193.88;5448009;26;19994;-48
2024/04/17 01:13:26;;;;;;;1.27;1.10;;;;;;;7.94;61.36;94184.44;5445568;26;19999;-46
2024/04/17 01:15:52;;;;;;;1.30;1.05;;;;;;;8.31;59.71;94185.94;5446875;26;20006;-47
2024/04/17 01:18:19;;;;;;;2.20;0.98;;;;;;;8.31;59.51;94177.38;5447301;26;19995;-47
2024/04/17 01:20:44;;;;;;;1.73;1.10;;;;;;;8.06;60.84;94174.41;5451094;26;19995;-48
2024/04/17 01:23:09;;;;;;;1.35;1.17;;;;;;;8.02;61.14;94181.75;5449140;26;19999;-45
2024/04/17 01:25:35;;;;;;;1.85;1.17;;;;;;;8.17;59.84;94174.69;5449150;26;19994;-48
2024/04/17 01:28:00;;;;;;;1.40;1.20;;;;;;;8.11;61.06;94172.88;5438494;26;20014;-45
2024/04/17 01:30:25;;;;;;;1.45;1.20;;;;;;;7.95;61.23;94173.91;5435627;26;20051;-45
2024/04/17 01:32:51;;;;;;;1.83;0.93;;;;;;;7.64;61.50;94176.84;5419689;26;20013;-45
2024/04/17 01:35:16;;;;;;;1.98;1.10;;;;;;;7.67;62.21;94175.66;5450523;26;19999;-48
2024/04/17 01:37:42;;;;;;;1.15;1.05;;;;;;;7.18;63.55;94174.59;5450601;26;20035;-44
2024/04/17 01:40:07;;;;;;;1.27;1.17;;;;;;;7.57;62.72;94176.75;5450790;26;19999;-45
2024/04/17 01:42:33;;;;;;;1.23;1.13;;;;;;;7.83;62.27;94168.44;5449629;26;20007;-46
2024/04/17 01:44:58;;;;;;;1.60;1.13;;;;;;;8.11;61.11;94170.28;5437814;26;20000;-46
2024/04/17 01:47:23;;;;;;;1.60;1.40;;;;;;;7.86;61.90;94172.44;5441643;26;19995;-47
2024/04/17 01:49:49;;;;;;;1.75;1.50;;;;;;;8.03;61.34;94167.78;5443408;26;20011;-53
2024/04/17 01:52:14;;;;;;;1.67;1.58;;;;;;;8.31;61.07;94164.44;5440853;26;20007;-50
2024/04/17 01:54:39;;;;;;;1.90;1.80;;;;;;;8.17;61.72;94168.72;5449373;26;20010;-48
2024/04/17 01:57:05;;;;;;;2.22;1.92;;;;;;;8.25;61.03;94160.78;5447861;26;19996;-48
2024/04/17 01:59:30;;;;;;;2.30;2.10;;;;;;;8.27;61.26;94168.38;5450545;26;20019;-48
2024/04/17 02:01:56;;;;;;;2.22;2.00;;;;;;;8.23;61.27;94168.75;5451838;26;19995;-51
2024/04/17 02:04:21;;;;;;;3.22;2.03;;;;;;;8.35;61.39;94171.63;5413148;26;20000;-50
2024/04/17 02:06:46;;;;;;;2.13;1.92;;;;;;;8.33;61.66;94170.22;5448307;26;19994;-49
2024/04/17 02:09:12;;;;;;;2.33;2.10;;;;;;;8.46;60.58;94166.94;5449002;26;20015;-48
2024/04/17 02:11:37;;;;;;;2.10;1.90;;;;;;;8.46;60.81;94172.13;5448829;26;19994;-48
2024/04/17 02:14:02;;;;;;;3.15;2.25;;;;;;;8.26;62.23;94174.53;5438085;26;19999;-49
2024/04/17 02:16:28;;;;;;;2.50;2.22;;;;;;;8.40;61.44;94176.25;5428196;26;20067;-46
2024/04/17 02:18:53;;;;;;;3.47;2.45;;;;;;;8.28;61.99;94167.38;5442746;26;20003;-46
2024/04/17 02:21:18;;;;;;;2.78;2.40;;;;;;;8.39;61.48;94177.22;5447356;26;19994;-47
2024/04/17 02:23:47;;;;;;;3.33;2.72;;;;;;;8.47;61.00;94168.53;5446302;26;20003;-47
2024/04/17 02:26:12;;;;;;;3.53;2.67;;;;;;;8.37;61.66;94163.66;5441394;26;19996;-46
2024/04/17 02:28:37;;;;;;;2.70;2.35;;;;;;;8.45;61.72;94168.72;5427740;26;20022;-45
2024/04/17 02:31:03;;;;;;;3.70;2.40;;;;;;;8.43;61.82;94172.50;5446163;26;20076;-46
2024/04/17 02:33:28;;;;;;;3.88;2.80;;;;;;;8.44;61.63;94174.91;5450561;26;19995;-46
2024/04/17 02:35:54;;;;;;;3.95;2.50;;;;;;;8.63;61.30;94180.41;5417727;26;20003;-50
2024/04/17 02:38:19;;;;;;;2.75;2.45;;;;;;;8.44;61.60;94172.31;5448919;26;19995;-49
2024/04/17 02:40:45;;;;;;;3.20;2.60;;;;;;;8.54;61.62;94174.56;5451826;26;20006;-49
2024/04/17 02:43:10;;;;;;;3.05;2.50;;;;;;;8.67;61.21;94173.84;5445810;26;19999;-53
2024/04/17 02:45:35;;;;;;;2.80;2.40;;;;;;;8.64;61.24;94184.59;5450132;26;19995;-51
2024/04/17 02:48:01;;;;;;;2.95;2.25;;;;;;;8.53;61.65;94173.78;5435988;26;19995;-50
2024/04/17 02:50:26;;;;;;;2.50;2.20;;;;;;;8.54;61.73;94177.94;5437442;26;20004;-52
2024/04/17 02:52:51;;;;;;;2.83;1.83;;;;;;;8.48;61.51;94170.94;5435480;26;20064;-48
2024/04/17 02:55:17;;;;;;;2.22;2.00;;;;;;;8.55;61.63;94181.38;5448207;26;20006;-48
2024/04/17 02:57:42;;;;;;;2.90;1.80;;;;;;;8.65;61.55;94181.00;5442368;26;20000;-49
2024/04/17 03:00:08;;;;;;;2.38;2.17;;;;;;;8.59;61.22;94185.97;5435325;26;19994;-50
2024/04/17 03:02:33;;;;;;;1.85;1.67;;;;;;;8.78;60.63;94183.69;5428840;26;20000;-54
2024/04/17 03:04:59;;;;;;;2.42;1.60;;;;;;;8.66;61.22;94178.22;5413323;26;20087;-50
2024/04/17 03:07:24;;;;;;;2.00;1.70;;;;;;;8.58;61.41;94186.16;5434695;26;20007;-47
2024/04/17 03:09:50;;;;;;;2.10;1.88;;;;;;;8.73;61.23;94183.44;5447997;26;20010;-50
2024/04/17 03:12:16;;;;;;;1.90;1.58;;;;;;;8.67;60.99;94177.22;5448076;26;20428;-51
2024/04/17 03:14:42;;;;;;;2.22;1.45;;;;;;;8.78;60.89;94181.09;5448102;26;20075;-50
2024/04/17 03:17:07;;;;;;;1.48;1.33;;;;;;;8.71;61.03;94181.03;5445878;26;20352;-52
2024/04/17 03:19:32;;;;;;;1.90;1.67;;;;;;;8.60;61.54;94177.22;5433540;26;20007;-50
2024/04/17 03:21:58;;;;;;;2.20;1.67;;;;;;;8.46;62.05;94177.31;5447345;26;20023;-49
2024/04/17 03:24:23;;;;;;;1.58;1.48;;;;;;;8.54;61.76;94180.53;5449755;26;19994;-50
2024/04/17 03:26:48;;;;;;;1.83;1.60;;;;;;;8.70;60.47;94182.03;5447740;26;19999;-51
2024/04/17 03:29:14;;;;;;;2.17;1.60;;;;;;;8.71;61.00;94177.66;5439071;26;20018;-52
2024/04/17 03:31:39;;;;;;;1.73;1.60;;;;;;;8.84;60.00;94189.91;5447791;26;19995;-49
2024/04/17 03:34:04;;;;;;;2.10;1.20;;;;;;;8.68;59.63;94185.81;5449577;26;19999;-51
2024/04/17 03:36:31;;;;;;;1.73;1.13;;;;;;;8.80;59.50;94189.47;5441923;26;20007;-51
2024/04/17 03:38:56;;;;;;;1.50;1.20;;;;;;;8.67;59.72;94192.78;5437030;26;20069;-54
2024/04/17 03:41:22;;;;;;;1.70;1.50;;;;;;;8.71;59.72;94196.59;5446263;26;19999;-46
2024/04/17 03:43:47;;;;;;;1.95;1.52;;;;;;;8.49;61.01;94193.28;5447437;26;20447;-50
2024/04/17 03:46:12;;;;;;;3.15;1.48;;;;;;;8.49;60.68;94201.06;5443109;26;20447;-52
2024/04/17 03:48:38;;;;;;;1.55;0.90;;;;;;;8.55;59.85;94192.53;5411823;26;20072;-49
2024/04/17 03:51:03;;;;;;;1.52;1.10;;;;;;;8.31;61.21;94203.28;5443641;26;19998;-47
2024/04/17 03:53:28;;;;;;;1.58;1.20;;;;;;;8.49;60.53;94202.81;5414312;26;19998;-46
2024/04/17 03:55:54;;;;;;;1.40;1.10;;;;;;;8.49;60.56;94206.25;5429398;26;20046;-50
2024/04/17 03:58:20;;;;;;;2.30;1.35;;;;;;;8.45;61.02;94202.41;5432125;26;20017;-50
2024/04/17 04:00:47;;;;;;;1.40;1.23;;;;;;;8.51;60.31;94211.22;5438400;26;20007;-49
2024/04/17 04:03:12;;;;;;;1.30;1.20;;;;;;;8.47;60.65;94207.41;5447052;26;19999;-50
2024/04/17 04:05:37;;;;;;;2.78;1.10;;;;;;;8.50;60.52;94207.81;5416869;26;20018;-48
2024/04/17 04:08:03;;;;;;;1.88;1.20;;;;;;;8.20;61.71;94202.78;5448261;26;20046;-53
2024/04/17 04:10:28;;;;;;;1.38;1.20;;;;;;;8.53;60.62;94212.66;5417340;26;20042;-50
2024/04/17 04:12:54;;;;;;;1.73;1.38;;;;;;;8.50;60.55;94217.41;5435814;26;20013;-46
2024/04/17 04:15:19;;;;;;;1.38;1.27;;;;;;;8.33;61.18;94216.84;5449056;26;20005;-51
2024/04/17 04:17:45;;;;;;;1.40;1.30;;;;;;;8.40;60.94;94220.28;5447389;26;20079;-48
2024/04/17 04:20:10;;;;;;;1.77;1.40;;;;;;;8.56;60.35;94219.22;5428913;26;20003;-50
2024/04/17 04:22:36;;;;;;;3.00;1.33;;;;;;;8.27;62.05;94209.84;5447054;26;19999;-48
2024/04/17 04:25:01;;;;;;;1.65;1.30;;;;;;;8.50;60.99;94220.78;5441158;26;20032;-52
2024/04/17 04:27:26;;;;;;;1.60;1.40;;;;;;;8.52;59.91;94225.78;5434705;26;20003;-50
2024/04/17 04:29:52;;;;;;;2.08;1.40;;;;;;;8.49;60.48;94213.19;5434295;26;20014;-51
2024/04/17 04:32:17;;;;;;;2.85;1.20;;;;;;;8.49;60.49;94218.38;5416759;26;20052;-48
2024/04/17 04:34:43;;;;;;;2.03;1.40;;;;;;;8.47;60.55;94226.34;5439952;26;20585;-52
2024/04/17 04:37:08;;;;;;;2.05;1.33;;;;;;;8.41;61.18;94220.16;5443838;26;20014;-48
2024/04/17 04:39:33;;;;;;;1.80;1.38;;;;;;;8.41;60.50;94227.06;5428834;26;19991;-48
2024/04/17 04:41:59;;;;;;;1.70;1.60;;;;;;;8.52;60.41;94229.16;5443755;26;20035;-48
2024/04/17 04:44:24;;;;;;;1.75;1.30;;;;;;;8.56;59.71;94227.00;5445121;26;20013;-49
2024/04/17 04:46:51;;;;;;;1.92;1.40;;;;;;;8.57;58.89;94220.84;5431751;26;20000;-48
2024/04/17 04:49:17;;;;;;;1.50;1.40;;;;;;;8.61;58.58;94217.66;5439206;26;20004;-47
2024/04/17 04:51:42;;;;;;;2.38;1.60;;;;;;;8.39;59.77;94226.44;5431156;26;19995;-50
2024/04/17 04:54:07;;;;;;;1.60;1.50;;;;;;;8.47;59.79;94221.16;5420348;26;20431;-50
2024/04/17 04:56:33;;;;;;;1.75;1.40;;;;;;;8.50;59.84;94215.59;5448556;26;19995;-49
2024/04/17 04:58:58;;;;;;;1.60;1.50;;;;;;;8.56;59.71;94217.44;5450413;26;20101;-49
2024/04/17 05:01:24;;;;;;;1.80;1.60;;;;;;;8.53;59.80;94224.78;5448845;26;20003;-50
2024/04/17 05:03:50;;;;;;;2.38;1.90;;;;;;;8.39;60.27;94216.09;5444199;26;20039;-47
2024/04/17 05:06:15;;;;;;;1.80;1.70;;;;;;;8.35;61.16;94220.06;5440326;26;20332;-49
2024/04/17 05:08:40;;;;;;;1.70;1.55;;;;;;;8.30;60.49;94207.69;5444261;26;20007;-50
2024/04/17 05:11:06;;;;;;;2.05;1.55;;;;;;;8.32;60.76;94218.66;5438243;26;20009;-49
2024/04/17 05:13:31;;;;;;;2.63;1.80;;;;;;;8.15;61.65;94219.91;5450049;26;19999;-51
2024/04/17 05:15:56;;;;;;;2.03;1.80;;;;;;;8.16;61.57;94221.50;5445389;26;20007;-51
2024/04/17 05:18:22;;;;;;;1.67;1.58;;;;;;;8.18;61.37;94220.31;5443162;26;19994;-47
2024/04/17 05:20:47;;;;;;;2.22;1.80;;;;;;;8.41;60.90;94221.88;5449321;26;20018;-45
2024/04/17 05:23:13;;;;;;;2.00;1.70;;;;;;;8.26;60.85;94224.56;5454805;26;19999;-46
2024/04/17 05:25:40;;;;;;;2.00;1.80;;;;;;;8.38;60.93;94219.69;5441362;26;20094;-47
2024/04/17 05:28:05;;;;;;;2.60;2.10;;;;;;;8.29;61.70;94226.00;5441447;26;20010;-46
2024/04/17 05:30:30;;;;;;;4.38;1.77;;;;;;;8.51;60.44;94221.56;5436798;26;19998;-48
2024/04/17 05:32:56;;;;;;;2.13;1.80;;;;;;;8.57;60.64;94220.84;5446711;26;20430;-47
2024/04/17 05:35:21;;;;;;;1.80;1.63;;;;;;;8.48;60.71;94225.34;5442869;26;19995;-47
2024/04/17 05:37:46;;;;;;;2.22;1.90;;;;;;;8.38;61.27;94222.28;5440290;26;19996;-45
2024/04/17 05:40:12;;;;;;;3.78;1.90;;;;;;;8.66;59.92;94221.47;5451300;26;19995;-45
2024/04/17 05:42:37;;;;;;;3.78;2.10;;;;;;;8.55;60.74;94228.81;5447519;26;19995;-47
2024/04/17 05:45:03;;;;;;;2.60;2.30;;;;;;;8.63;59.99;94232.25;5448185;26;20010;-48
2024/04/17 05:47:28;;;;;;;2.60;2.20;;;;;;;8.54;60.44;94227.19;5447756;26;20007;-51
2024/04/17 05:49:54;;;;;;;3.03;2.35;;;;;;;8.45;60.94;94233.50;5451441;26;20002;-48
2024/04/17 05:52:20;;;;;;;3.25;2.45;;;;;;;8.45;61.14;94237.88;5448711;26;19998;-46
2024/04/17 05:54:45;;;;;;;3.22;2.33;;;;;;;8.50;60.71;94241.53;5418053;26;20013;-48
2024/04/17 05:57:11;;;;;;;2.20;2.00;;;;;;;8.65;60.36;94233.66;5441757;26;20002;-47
2024/04/17 05:59:36;;;;;;;2.55;2.35;;;;;;;8.82;59.22;94236.75;5442861;26;19996;-50
2024/04/17 06:02:02;;;;;;;2.35;2.05;;;;;;;8.39;60.84;94234.22;5440787;26;20004;-47
2024/04/17 06:04:29;;;;;;;3.20;2.13;;;;;;;8.48;60.11;94238.31;5441205;26;20010;-47
2024/04/17 06:06:54;;;;;;;2.00;1.80;;;;;;;8.48;60.10;94227.94;5443035;26;20076;-50
2024/04/17 06:09:20;;;;;;;2.33;2.00;;;;;;;8.44;60.56;94237.09;5448778;26;20015;-46
2024/04/17 06:11:45;;;;;;;2.13;1.90;;;;;;;8.58;59.99;94246.56;5414294;26;20013;-49
2024/04/17 06:14:10;;;;;;;2.53;1.50;;;;;;;8.50;59.42;94249.28;5443781;26;20011;-45
2024/04/17 06:16:36;;;;;;;1.67;1.50;;;;;;;8.55;59.97;94248.75;5411090;26;20387;-45
2024/04/17 06:19:01;;;;;;;2.78;1.73;;;;;;;8.89;58.63;94241.97;5438914;26;20018;-45
2024/04/17 06:21:29;;;;;;;1.63;1.40;;;;;;;8.78;58.99;94243.31;5444659;26;20003;-45
2024/04/17 06:23:55;;;;;;;1.88;1.50;;;;;;;8.90;59.00;94249.56;5438525;26;20091;-47
2024/04/17 06:26:20;;;;;;;2.35;1.80;;;;;;;8.73;59.18;94243.06;5458467;26;20010;-46
2024/04/17 06:28:46;;;;;;;1.85;1.60;;;;;;;8.76;59.71;94246.09;5448470;26;20003;-45
2024/04/17 06:31:11;;;;;;;2.45;1.88;;;;;;;8.47;60.28;94249.66;5448188;26;20504;-45
2024/04/17 06:33:36;;;;;;;3.58;2.20;;;;;;;8.59;59.53;94255.16;5449684;26;19998;-47
2024/04/17 06:36:02;;;;;;;3.33;2.97;;;;;;;8.38;60.83;94251.56;5441599;26;20010;-51
2024/04/17 06:38:27;;;;;;;2.15;1.95;;;;;;;8.58;59.81;94250.94;5415694;26;20014;-48
2024/04/17 06:40:55;;;;;;;2.65;2.42;;;;;;;8.47;59.98;94247.06;5414586;26;20458;-51
2024/04/17 06:43:22;;;;;;;2.75;1.98;;;;;;;8.53;60.11;94256.69;5438540;26;20007;-48
2024/04/17 06:45:47;;;;;;;2.78;2.15;;;;;;;8.36;60.61;94253.56;5445186;26;19999;-50
2024/04/17 06:48:13;;;;;;;2.67;2.20;;;;;;;8.48;60.47;94258.25;5443247;26;19995;-52
2024/04/17 06:50:39;;;;;;;3.22;2.05;;;;;;;8.54;60.55;94263.47;5434973;26;20026;-52
2024/04/17 06:53:04;;;;;;;2.95;1.80;;;;;;;8.73;59.55;94256.03;5442497;26;19995;-52
2024/04/17 06:55:29;;;;;;;1.83;1.60;;;;;;;8.57;60.00;94252.75;5416474;26;20404;-52
2024/04/17 06:57:55;;;;;;;3.47;1.70;;;;;;;8.59;60.06;94263.72;5441277;26;20347;-51
2024/04/17 07:00:20;;;;;;;3.92;1.90;;;;;;;8.85;58.95;94261.50;5447888;26;20015;-51
2024/04/17 07:02:46;;;;;;;2.63;1.70;;;;;;;8.72;59.47;94269.97;5445384;26;20011;-51
2024/04/17 07:05:12;;;;;;;1.65;1.40;;;;;;;8.65;59.91;94259.56;5412256;26;20015;-52
2024/04/17 07:07:37;;;;;;;1.40;1.30;;;;;;;8.65;59.44;94274.34;5418671;26;19999;-51
2024/04/17 07:10:03;;;;;;;1.90;1.50;;;;;;;8.66;60.32;94270.72;5447625;26;19999;-50
2024/04/17 07:12:28;;;;;;;1.20;1.10;;;;;;;8.38;59.94;94268.91;5435248;26;20052;-50
2024/04/17 07:14:54;;;;;;;1.58;1.27;;;;;;;8.53;59.70;94268.84;5443575;26;20075;-50
2024/04/17 07:17:20;;;;;;;1.77;1.27;;;;;;;8.49;59.96;94271.03;5440040;26;20102;-48
2024/04/17 07:19:45;;;;;;;1.88;1.27;;;;;;;8.56;59.56;94268.47;5438448;26;20000;-48
2024/04/17 07:22:11;;;;;;;1.40;1.30;;;;;;;8.55;59.97;94269.47;5445747;26;20006;-52
2024/04/17 07:24:36;;;;;;;1.60;1.50;;;;;;;8.50;60.33;94270.03;5435037;26;19999;-51
2024/04/17 07:27:02;;;;;;;1.73;1.50;;;;;;;8.50;60.72;94274.41;5432508;26;19994;-49
2024/04/17 07:29:28;;;;;;;2.13;1.30;;;;;;;8.37;61.34;94262.91;5441962;26;20570;-51
2024/04/17 07:31:53;;;;;;;1.52;1.42;;;;;;;8.45;60.07;94267.19;5417741;26;19995;-51
2024/04/17 07:34:19;;;;;;;1.85;1.40;;;;;;;8.69;59.48;94272.97;5448516;26;20448;-52
2024/04/17 07:36:46;;;;;;;2.63;1.40;;;;;;;8.72;59.16;94264.78;5440432;26;20062;-51
2024/04/17 07:39:11;;;;;;;1.70;1.50;;;;;;;8.61;60.07;94271.31;5436092;26;19999;-52
2024/04/17 07:41:37;;;;;;;2.38;1.70;;;;;;;8.74;59.63;94265.44;5440788;26;20000;-51
2024/04/17 07:44:03;;;;;;;2.10;1.40;;;;;;;8.91;59.60;94277.09;5435546;26;20006;-52
2024/04/17 07:46:28;;;;;;;1.80;1.70;;;;;;;8.67;60.69;94267.16;5440166;26;20071;-48
2024/04/17 07:48:54;;;;;;;1.80;1.45;;;;;;;8.74;60.32;94271.41;5445484;26;20096;-48
2024/04/17 07:51:20;;;;;;;1.35;1.25;;;;;;;8.95;60.03;94264.56;5444007;26;20071;-48
2024/04/17 07:53:45;;;;;;;1.60;1.50;;;;;;;9.01;59.62;94268.97;5439816;26;20007;-50
2024/04/17 07:56:11;;;;;;;1.92;1.50;;;;;;;8.97;59.96;94262.56;5412219;26;19999;-51
2024/04/17 07:58:36;;;;;;;1.42;1.27;;;;;;;9.11;59.65;94260.84;5411135;26;20012;-49
2024/04/17 08:01:01;;;;;;;1.30;1.20;;;;;;;8.93;59.72;94266.50;5424177;26;19999;-51
2024/04/17 08:03:27;;;;;;;1.48;1.30;;;;;;;9.04;60.27;94267.78;5445168;26;20014;-52
2024/04/17 08:05:52;;;;;;;1.42;1.20;;;;;;;9.07;60.07;94272.59;5429983;26;19998;-50
2024/04/17 08:08:18;;;;;;;1.50;1.40;;;;;;;8.97;60.59;94267.75;5440618;26;20376;-52
2024/04/17 08:10:44;;;;;;;1.98;1.30;;;;;;;9.13;59.59;94264.03;5447744;26;20076;-51
2024/04/17 08:13:12;;;;;;;1.30;1.20;;;;;;;9.15;59.28;94264.66;5411148;26;20048;-51
2024/04/17 08:15:45;;;;;;;2.17;1.38;;;;;;;9.06;59.34;94266.59;5431137;26;20004;-52
2024/04/17 08:18:11;;;;;;;2.00;1.10;;;;;;;9.11;59.28;94266.81;5445220;26;19999;-51
2024/04/17 08:20:38;;;;;;;1.88;1.20;;;;;;;9.28;58.90;94264.72;5413682;26;20007;-54
2024/04/17 08:23:03;;;;;;;2.80;1.30;;;;;;;9.03;60.51;94261.00;5437831;26;20017;-51
2024/04/17 08:25:29;;;;;;;1.38;1.27;;;;;;;9.12;59.97;94270.22;5423407;26;20003;-49
2024/04/17 08:27:54;;;;;;;1.05;0.95;;;;;;;9.46;57.98;94261.63;5439096;26;20015;-50
2024/04/17 08:30:19;;;;;;;1.58;1.10;;;;;;;9.19;58.73;94278.84;5429729;26;20000;-52
2024/04/17 08:32:45;;;;;;;1.30;1.20;;;;;;;9.30;59.54;94278.28;5433289;26;20037;-50
2024/04/17 08:35:11;;;;;;;1.10;1.00;;;;;;;9.18;59.04;94278.03;5443672;26;20007;-49
2024/04/17 08:37:36;;;;;;;1.13;1.02;;;;;;;9.19;59.69;94278.84;5434294;26;20052;-51
2024/04/17 08:40:03;;;;;;;1.35;1.10;;;;;;;9.07;59.66;94272.59;5448277;26;20017;-50
2024/04/17 08:42:32;;;;;;;1.40;1.10;;;;;;;9.09;59.32;94275.81;5432869;26;20014;-48
2024/04/17 08:45:06;;;;;;;1.30;1.17;;;;;;;9.22;59.67;94286.25;5437038;26;20004;-48
2024/04/17 08:47:32;;;;;;;2.75;1.45;;;;;;;9.31;59.94;94285.09;5442424;26;20013;-50
2024/04/17 08:49:59;;;;;;;2.03;1.17;;;;;;;9.68;58.18;94292.63;5444911;26;20340;-52
2024/04/17 08:52:25;;;;;;;1.10;1.00;;;;;;;9.32;59.50;94281.50;5434723;26;20092;-51
2024/04/17 08:54:51;;;;;;;1.10;1.00;;;;;;;9.47;58.16;94280.56;5441555;26;20014;-48
2024/04/17 08:57:18;;;;;;;1.30;1.20;;;;;;;9.59;58.66;94287.63;5411026;26;20003;-51
2024/04/17 08:59:44;;;;;;;1.10;1.00;;;;;;;9.73;58.49;94285.88;5445295;26;19999;-49
2024/04/17 09:02:13;;;;;;;1.50;1.15;;;;;;;9.21;59.08;94289.81;5410244;26;20071;-46
2024/04/17 09:04:42;;;;;;;1.25;1.15;;;;;;;9.39;59.14;94281.53;5433721;26;19999;-46
2024/04/17 09:07:09;;;;;;;1.33;1.20;;;;;;;9.40;59.51;94296.09;5435509;26;20010;-45
2024/04/17 09:09:38;;;;;;;1.40;1.25;;;;;;;9.54;58.93;94294.38;5448186;26;20075;-49
2024/04/17 09:12:05;;;;;;;1.30;1.20;;;;;;;9.43;59.94;94294.94;5446181;26;20083;-48
2024/04/17 09:14:31;;;;;;;2.17;1.13;;;;;;;9.59;59.23;94297.19;5447875;26;20071;-49
2024/04/17 09:16:56;;;;;;;1.30;1.20;;;;;;;9.87;58.14;94296.28;5447982;26;20019;-47
2024/04/17 09:19:21;;;;;;;1.00;0.90;;;;;;;9.63;57.88;94308.78;5437624;26;20456;-45
2024/04/17 09:21:47;;;;;;;0.98;0.80;;;;;;;9.30;59.47;94304.25;5415775;26;20073;-48
2024/04/17 09:24:12;;;;;;;0.68;0.68;;;;;;;9.56;57.55;94308.78;5436315;26;20010;-47
2024/04/17 09:26:38;;;;;;;0.50;0.50;;;;;;;9.00;59.23;94311.44;5418488;26;20388;-46
2024/04/17 09:29:03;;;;;;;1.83;0.60;;;;;;;8.98;58.32;94318.63;5439020;26;20002;-52
2024/04/17 09:31:28;;;;;;;0.60;0.55;;;;;;;8.91;58.09;94326.38;5445023;26;19998;-51
2024/04/17 09:33:54;;;;;;;0.52;0.50;;;;;;;8.47;58.19;94330.00;5445521;26;20002;-51
2024/04/17 09:36:21;;;;;;;1.00;0.45;;;;;;;8.55;58.67;94335.06;5409766;26;19999;-51
2024/04/17 09:38:46;;;;;;;0.80;0.50;;;;;;;8.20;60.04;94329.72;5424869;26;19998;-52
2024/04/17 09:41:12;;;;;;;0.85;0.50;;;;;;;8.15;60.18;94331.28;5434372;26;20017;-51
2024/04/17 09:43:45;;;;;;;0.38;0.30;;;;;;;8.09;59.63;94335.41;5434483;26;20079;-51
2024/04/17 09:46:14;;;;;;;1.25;0.50;;;;;;;8.18;60.02;94336.09;5444007;26;20010;-47
2024/04/17 09:48:43;;;;;;;0.60;0.50;;;;;;;8.05;60.21;94328.19;5432630;26;19999;-53
2024/04/17 09:51:11;;;;;;;0.40;0.40;;;;;;;8.14;60.50;94327.88;5445446;26;20014;-49
2024/04/17 09:54:01;;;;;;;1.50;0.30;;;;;;;8.06;60.54;94329.78;5441980;26;20352;-51
2024/04/17 09:56:28;;;;;;;0.63;0.50;;;;;;;8.48;60.22;94323.84;5471193;26;20031;-48
2024/04/17 09:58:55;;;;;;;0.60;0.55;;;;;;;8.46;60.98;94327.63;5423554;26;20011;-48
2024/04/17 10:01:21;;;;;;;0.70;0.40;;;;;;;8.44;60.92;94335.56;5449047;26;20001;-55
2024/04/17 10:03:48;;;;;;;0.50;0.40;;;;;;;8.81;60.26;94336.25;5437883;26;20036;-50
2024/04/17 10:06:14;;;;;;;0.50;0.50;;;;;;;8.80;60.73;94345.03;5443001;26;20538;-53
2024/04/17 10:08:41;;;;;;;0.55;0.45;;;;;;;9.08;59.49;94339.03;5438012;26;20002;-48
2024/04/17 10:11:07;;;;;;;0.47;0.40;;;;;;;9.08;58.48;94336.44;5435666;26;20332;-50
2024/04/17 10:13:33;;;;;;;0.43;0.43;;;;;;;8.91;58.55;94335.91;5446025;26;20019;-48
2024/04/17 10:15:58;;;;;;;1.42;0.50;;;;;;;8.98;58.68;94339.38;5436747;26;20011;-53
2024/04/17 10:18:24;;;;;;;0.40;0.40;;;;;;;8.88;59.27;94337.13;5438980;26;19999;-53
2024/04/17 10:20:53;;;;;;;0.40;0.40;;;;;;;8.84;59.37;94340.28;5463960;26;20039;-47
2024/04/17 10:23:19;;;;;;;0.40;0.40;;;;;;;8.97;59.42;94345.56;5445235;26;20102;-47
2024/04/17 10:25:46;;;;;;;0.30;0.30;;;;;;;8.83;59.12;94338.66;5403507;26;20003;-52
2024/04/17 10:28:13;;;;;;;1.05;0.52;;;;;;;8.92;58.86;94345.31;5448618;26;19999;-51
2024/04/17 10:30:38;;;;;;;0.95;0.50;;;;;;;8.53;59.70;94352.59;5429850;26;20017;-53
2024/04/17 10:33:17;;;;;;;0.43;0.40;;;;;;;8.90;59.47;94350.69;5448818;26;19999;-52
2024/04/17 10:35:42;;;;;;;0.77;0.30;;;;;;;8.90;57.39;94342.91;5450561;26;20009;-53
2024/04/17 10:38:07;;;;;;;0.50;0.47;;;;;;;8.79;57.95;94351.19;5450306;26;19999;-52
2024/04/17 10:40:33;;;;;;;1.45;0.50;;;;;;;8.84;58.56;94335.88;5446823;26;20003;-50
2024/04/17 10:42:59;;;;;;;1.50;1.05;;;;;;;8.70;59.33;94357.50;5395967;26;20014;-47
2024/04/17 10:45:24;;;;;;;0.55;0.55;;;;;;;8.69;59.60;94361.09;5439453;26;20004;-49
2024/04/17 10:47:50;;;;;;;0.50;0.40;;;;;;;8.58;59.55;94352.03;5449798;26;20099;-48
2024/04/17 10:50:17;;;;;;;0.70;0.50;;;;;;;8.71;58.92;94340.97;5438655;26;20002;-51
2024/04/17 10:52:43;;;;;;;1.15;0.50;;;;;;;8.67;59.54;94352.72;5432158;26;20017;-49
2024/04/17 10:55:10;;;;;;;1.35;0.60;;;;;;;8.72;59.15;94353.75;5434113;26;20014;-49
2024/04/17 10:57:36;;;;;;;0.65;0.65;;;;;;;8.58;59.28;94355.41;5448280;26;20076;-48
2024/04/17 11:00:02;;;;;;;1.17;0.82;;;;;;;8.65;59.82;94362.47;5448090;26;20410;-50
2024/04/17 11:02:28;;;;;;;1.10;1.00;;;;;;;8.67;59.10;94339.75;5444258;26;20003;-50
2024/04/17 11:04:53;;;;;;;1.50;1.20;;;;;;;8.74;59.96;94340.63;5438628;26;20042;-53
2024/04/17 11:07:19;;;;;;;1.67;1.20;;;;;;;8.79;59.06;94346.81;5470510;26;20014;-50
2024/04/17 11:09:46;;;;;;;1.60;1.50;;;;;;;8.77;59.48;94346.19;5438346;26;20013;-49
2024/04/17 11:12:16;;;;;;;1.70;1.60;;;;;;;8.68;60.70;94347.34;5445769;26;20083;-50
2024/04/17 11:14:42;;;;;;;1.48;1.38;;;;;;;8.78;59.76;94345.22;5436208;26;20002;-50
2024/04/17 11:17:11;;;;;;;2.25;1.77;;;;;;;8.59;60.07;94351.06;5445666;26;20013;-47
2024/04/17 11:19:37;;;;;;;2.20;2.00;;;;;;;8.81;59.74;94336.25;5443396;26;20383;-49
2024/04/17 11:22:10;;;;;;;2.00;1.88;;;;;;;8.55;61.00;94348.03;5417664;26;20461;-54
2024/04/17 11:24:35;;;;;;;2.60;1.90;;;;;;;8.82;59.82;94353.44;5441312;26;20004;-50
2024/04/17 11:27:06;;;;;;;1.60;1.50;;;;;;;9.11;58.46;94352.44;5449613;26;20007;-49
2024/04/17 11:29:31;;;;;;;1.70;1.60;;;;;;;9.02;58.49;94352.78;5447860;26;20056;-50
2024/04/17 11:31:57;;;;;;;2.20;1.75;;;;;;;8.85;58.90;94349.66;5426787;26;20003;-49
2024/04/17 11:34:24;;;;;;;1.50;1.40;;;;;;;9.03;58.67;94351.78;5452225;26;20017;-51